| Date | Time | Temp. (oF) | Dew Point (oF) | Rel. Hum. (%) | Press. (in.) | Wind Dir. | Wind Speed (mph) | Hourly Rainfall (in.) |
|
|---|---|---|---|---|---|---|---|---|---|
| 1 | 11/05 | 00:00 | 35 | 29 | 79 | 30.28 | WSW | 0 | 0.00 |
| 2 | 11/04 | 23:00 | 37 | 29 | 75 | 30.28 | W | 0 | 0.00 |
| 3 | 11/04 | 22:00 | 39 | 30 | 70 | 30.28 | WSW | 0 | 0.00 |
| 4 | 11/04 | 21:00 | 42 | 30 | 63 | 30.27 | W | 0 | 0.00 |
| 5 | 11/04 | 20:00 | 45 | 29 | 55 | 30.26 | WNW | 0 | 0.00 |
| 6 | 11/04 | 19:00 | 49 | 28 | 45 | 30.24 | SSE | 0 | 0.00 |
| 7 | 11/04 | 18:00 | 54 | 30 | 40 | 30.23 | WNW | 1 | 0.00 |
| 8 | 11/04 | 17:00 | 57 | 30 | 36 | 30.23 | E | 7 | 0.00 |
| 9 | 11/04 | 16:00 | 58 | 30 | 35 | 30.22 | SSE | 6 | 0.00 |
| 10 | 11/04 | 15:00 | 59 | 31 | 36 | 30.21 | WNW | 0 | 0.00 |
| 11 | 11/04 | 14:00 | 58 | 32 | 38 | 30.22 | SSE | 8 | 0.00 |
| 12 | 11/04 | 13:00 | 56 | 34 | 45 | 30.22 | SSE | 10 | 0.00 |
| 13 | 11/04 | 12:00 | 56 | 34 | 44 | 30.23 | SSE | 10 | 0.00 |
| 14 | 11/04 | 11:00 | 55 | 37 | 51 | 30.22 | WNW | 5 | 0.00 |
| 15 | 11/04 | 10:00 | 52 | 38 | 61 | 30.22 | NW | 8 | 0.00 |
| 16 | 11/04 | 09:00 | 48 | 38 | 69 | 30.22 | SSE | 4 | 0.00 |
| 17 | 11/04 | 08:00 | 46 | 37 | 71 | 30.20 | W | 0 | 0.00 |
| 18 | 11/04 | 07:00 | 46 | 37 | 71 | 30.16 | E | 4 | 0.00 |
| 19 | 11/04 | 06:00 | 50 | 39 | 66 | 30.13 | WNW | 0 | 0.00 |
| 20 | 11/04 | 05:00 | 51 | 40 | 66 | 30.10 | S | 11 | 0.00 |
| 21 | 11/04 | 04:00 | 52 | 42 | 70 | 30.07 | SSE | 2 | 0.00 |
| 22 | 11/04 | 03:00 | 52 | 42 | 70 | 30.05 | SSE | 2 | 0.00 |
| 23 | 11/04 | 02:00 | 52 | 42 | 71 | 30.04 | W | 4 | 0.00 |
| 24 | 11/04 | 01:00 | 51 | 42 | 74 | 30.04 | NE | 5 | 0.00 |